sensor_id;sensor_type;location;lat;lon;timestamp;temperature;humidity
60473;DHT22;46318;52.716;6.444;2022-09-27T00:01:38;10.60;99.90
60473;DHT22;46318;52.716;6.444;2022-09-27T00:04:04;10.60;99.90
60473;DHT22;46318;52.716;6.444;2022-09-27T00:06:31;10.60;99.90
60473;DHT22;46318;52.716;6.444;2022-09-27T00:08:58;10.50;99.90
60473;DHT22;46318;52.716;6.444;2022-09-27T00:11:36;10.50;99.90
60473;DHT22;46318;52.716;6.444;2022-09-27T00:14:04;10.50;99.90
60473;DHT22;46318;52.716;6.444;2022-09-27T00:16:33;10.40;99.90
60473;DHT22;46318;52.716;6.444;2022-09-27T00:19:05;10.40;99.90
60473;DHT22;46318;52.716;6.444;2022-09-27T00:21:33;10.40;99.90
60473;DHT22;46318;52.716;6.444;2022-09-27T00:23:59;10.30;99.90
60473;DHT22;46318;52.716;6.444;2022-09-27T00:26:25;10.30;99.90
60473;DHT22;46318;52.716;6.444;2022-09-27T00:28:51;10.30;99.90
60473;DHT22;46318;52.716;6.444;2022-09-27T00:31:23;10.30;99.90
60473;DHT22;46318;52.716;6.444;2022-09-27T00:33:57;10.20;99.90
60473;DHT22;46318;52.716;6.444;2022-09-27T00:36:26;10.20;99.90
60473;DHT22;46318;52.716;6.444;2022-09-27T00:38:54;10.20;99.90
60473;DHT22;46318;52.716;6.444;2022-09-27T00:41:23;10.10;99.90
60473;DHT22;46318;52.716;6.444;2022-09-27T00:44:01;10.10;99.90
60473;DHT22;46318;52.716;6.444;2022-09-27T00:49:36;10.00;99.90
60473;DHT22;46318;52.716;6.444;2022-09-27T00:52:12;10.00;99.90
60473;DHT22;46318;52.716;6.444;2022-09-27T00:54:43;10.00;99.90
60473;DHT22;46318;52.716;6.444;2022-09-27T00:57:12;10.00;99.90
60473;DHT22;46318;52.716;6.444;2022-09-27T00:59:42;10.00;99.90
60473;DHT22;46318;52.716;6.444;2022-09-27T01:02:11;10.00;99.90
60473;DHT22;46318;52.716;6.444;2022-09-27T01:04:38;10.00;99.90
60473;DHT22;46318;52.716;6.444;2022-09-27T01:07:04;9.90;99.90
60473;DHT22;46318;52.716;6.444;2022-09-27T01:09:30;9.90;99.90
60473;DHT22;46318;52.716;6.444;2022-09-27T01:12:05;9.90;99.90
60473;DHT22;46318;52.716;6.444;2022-09-27T01:21:01;9.90;99.90
60473;DHT22;46318;52.716;6.444;2022-09-27T01:24:03;9.90;99.90
60473;DHT22;46318;52.716;6.444;2022-09-27T01:35:31;9.90;99.90
60473;DHT22;46318;52.716;6.444;2022-09-27T01:38:44;9.80;99.90
60473;DHT22;46318;52.716;6.444;2022-09-27T01:41:14;9.80;99.90
60473;DHT22;46318;52.716;6.444;2022-09-27T01:44:18;9.80;99.90
60473;DHT22;46318;52.716;6.444;2022-09-27T01:46:53;9.80;99.90
60473;DHT22;46318;52.716;6.444;2022-09-27T01:52:49;9.80;99.90
60473;DHT22;46318;52.716;6.444;2022-09-27T01:55:21;9.70;99.90
60473;DHT22;46318;52.716;6.444;2022-09-27T01:57:55;9.70;99.90
60473;DHT22;46318;52.716;6.444;2022-09-27T02:00:24;9.70;99.90
60473;DHT22;46318;52.716;6.444;2022-09-27T02:03:10;9.70;99.90
60473;DHT22;46318;52.716;6.444;2022-09-27T02:06:03;9.70;99.90
60473;DHT22;46318;52.716;6.444;2022-09-27T02:11:13;9.60;99.90
60473;DHT22;46318;52.716;6.444;2022-09-27T02:16:50;9.60;99.90
60473;DHT22;46318;52.716;6.444;2022-09-27T02:22:33;9.60;99.90
60473;DHT22;46318;52.716;6.444;2022-09-27T02:25:16;9.60;99.90
60473;DHT22;46318;52.716;6.444;2022-09-27T02:28:05;9.50;99.90
60473;DHT22;46318;52.716;6.444;2022-09-27T02:30:38;9.50;99.90
60473;DHT22;46318;52.716;6.444;2022-09-27T02:33:03;9.50;99.90
60473;DHT22;46318;52.716;6.444;2022-09-27T02:35:34;9.50;99.90
60473;DHT22;46318;52.716;6.444;2022-09-27T02:38:01;9.50;99.90
60473;DHT22;46318;52.716;6.444;2022-09-27T02:40:33;9.50;99.90
60473;DHT22;46318;52.716;6.444;2022-09-27T02:43:03;9.50;99.90
60473;DHT22;46318;52.716;6.444;2022-09-27T02:54:51;9.50;99.90
60473;DHT22;46318;52.716;6.444;2022-09-27T02:57:49;9.40;99.90
60473;DHT22;46318;52.716;6.444;2022-09-27T03:03:52;9.40;99.90
60473;DHT22;46318;52.716;6.444;2022-09-27T03:06:23;9.40;99.90
60473;DHT22;46318;52.716;6.444;2022-09-27T03:08:50;9.40;99.90
60473;DHT22;46318;52.716;6.444;2022-09-27T03:11:16;9.40;99.90
60473;DHT22;46318;52.716;6.444;2022-09-27T03:13:43;9.30;99.90
60473;DHT22;46318;52.716;6.444;2022-09-27T03:16:09;9.30;99.90
60473;DHT22;46318;52.716;6.444;2022-09-27T03:18:34;9.30;99.90
60473;DHT22;46318;52.716;6.444;2022-09-27T03:21:00;9.30;99.90
60473;DHT22;46318;52.716;6.444;2022-09-27T03:23:26;9.30;99.90
60473;DHT22;46318;52.716;6.444;2022-09-27T03:25:52;9.30;99.90
60473;DHT22;46318;52.716;6.444;2022-09-27T03:28:19;9.30;99.90
60473;DHT22;46318;52.716;6.444;2022-09-27T03:30:45;9.30;99.90
60473;DHT22;46318;52.716;6.444;2022-09-27T03:33:12;9.20;99.90
60473;DHT22;46318;52.716;6.444;2022-09-27T03:35:38;9.20;99.90
60473;DHT22;46318;52.716;6.444;2022-09-27T03:38:04;9.20;99.90
60473;DHT22;46318;52.716;6.444;2022-09-27T03:40:31;9.20;99.90
60473;DHT22;46318;52.716;6.444;2022-09-27T03:42:57;9.20;99.90
60473;DHT22;46318;52.716;6.444;2022-09-27T03:45:23;9.20;99.90
60473;DHT22;46318;52.716;6.444;2022-09-27T03:47:49;9.20;99.90
60473;DHT22;46318;52.716;6.444;2022-09-27T03:50:15;9.20;99.90
60473;DHT22;46318;52.716;6.444;2022-09-27T03:52:44;9.20;99.90
60473;DHT22;46318;52.716;6.444;2022-09-27T03:55:11;9.20;99.90
60473;DHT22;46318;52.716;6.444;2022-09-27T03:57:37;9.10;99.90
60473;DHT22;46318;52.716;6.444;2022-09-27T04:00:05;9.10;99.90
60473;DHT22;46318;52.716;6.444;2022-09-27T04:02:31;9.10;99.90
60473;DHT22;46318;52.716;6.444;2022-09-27T04:04:57;9.10;99.90
60473;DHT22;46318;52.716;6.444;2022-09-27T04:07:23;9.10;99.90
60473;DHT22;46318;52.716;6.444;2022-09-27T04:09:49;9.10;99.90
60473;DHT22;46318;52.716;6.444;2022-09-27T04:12:14;9.10;99.90
60473;DHT22;46318;52.716;6.444;2022-09-27T04:14:40;9.10;99.90
60473;DHT22;46318;52.716;6.444;2022-09-27T04:17:06;9.00;99.90
60473;DHT22;46318;52.716;6.444;2022-09-27T04:19:32;9.00;99.90
60473;DHT22;46318;52.716;6.444;2022-09-27T04:21:58;9.00;99.90
60473;DHT22;46318;52.716;6.444;2022-09-27T04:24:24;9.00;99.90
60473;DHT22;46318;52.716;6.444;2022-09-27T04:26:52;9.00;99.90
60473;DHT22;46318;52.716;6.444;2022-09-27T04:29:18;9.00;99.90
60473;DHT22;46318;52.716;6.444;2022-09-27T04:31:44;9.00;99.90
60473;DHT22;46318;52.716;6.444;2022-09-27T04:34:09;9.00;99.90
60473;DHT22;46318;52.716;6.444;2022-09-27T04:36:36;9.00;99.90
60473;DHT22;46318;52.716;6.444;2022-09-27T04:39:05;9.00;99.90
60473;DHT22;46318;52.716;6.444;2022-09-27T04:41:31;8.90;99.90
60473;DHT22;46318;52.716;6.444;2022-09-27T04:43:58;8.90;99.90
60473;DHT22;46318;52.716;6.444;2022-09-27T04:46:27;8.90;99.90
60473;DHT22;46318;52.716;6.444;2022-09-27T04:48:59;8.90;99.90
60473;DHT22;46318;52.716;6.444;2022-09-27T04:51:26;8.90;99.90
60473;DHT22;46318;52.716;6.444;2022-09-27T04:53:52;8.80;99.90
60473;DHT22;46318;52.716;6.444;2022-09-27T04:56:20;8.80;99.90
60473;DHT22;46318;52.716;6.444;2022-09-27T04:58:46;8.80;99.90
60473;DHT22;46318;52.716;6.444;2022-09-27T05:01:12;8.80;99.90
60473;DHT22;46318;52.716;6.444;2022-09-27T05:03:37;8.80;99.90
60473;DHT22;46318;52.716;6.444;2022-09-27T05:06:03;8.80;99.90
60473;DHT22;46318;52.716;6.444;2022-09-27T05:08:29;8.70;99.90
60473;DHT22;46318;52.716;6.444;2022-09-27T05:10:55;8.70;99.90
60473;DHT22;46318;52.716;6.444;2022-09-27T05:13:21;8.70;99.90
60473;DHT22;46318;52.716;6.444;2022-09-27T05:15:47;8.70;99.90
60473;DHT22;46318;52.716;6.444;2022-09-27T05:18:12;8.70;99.90
60473;DHT22;46318;52.716;6.444;2022-09-27T05:20:38;8.70;99.90
60473;DHT22;46318;52.716;6.444;2022-09-27T05:23:04;8.70;99.90
60473;DHT22;46318;52.716;6.444;2022-09-27T05:25:31;8.60;99.90
60473;DHT22;46318;52.716;6.444;2022-09-27T05:27:57;8.60;99.90
60473;DHT22;46318;52.716;6.444;2022-09-27T05:30:24;8.60;99.90
60473;DHT22;46318;52.716;6.444;2022-09-27T05:32:51;8.60;99.90
60473;DHT22;46318;52.716;6.444;2022-09-27T05:35:18;8.60;99.90
60473;DHT22;46318;52.716;6.444;2022-09-27T05:38:02;8.60;99.90
60473;DHT22;46318;52.716;6.444;2022-09-27T05:40:28;8.50;99.90
60473;DHT22;46318;52.716;6.444;2022-09-27T05:42:55;8.50;99.90
60473;DHT22;46318;52.716;6.444;2022-09-27T05:45:22;8.50;99.90
60473;DHT22;46318;52.716;6.444;2022-09-27T05:47:56;8.50;99.90
60473;DHT22;46318;52.716;6.444;2022-09-27T05:50:24;8.50;99.90
60473;DHT22;46318;52.716;6.444;2022-09-27T05:52:52;8.40;99.90
60473;DHT22;46318;52.716;6.444;2022-09-27T05:55:18;8.40;99.90
60473;DHT22;46318;52.716;6.444;2022-09-27T05:58:01;8.40;99.90
60473;DHT22;46318;52.716;6.444;2022-09-27T06:00:29;8.40;99.90
60473;DHT22;46318;52.716;6.444;2022-09-27T06:03:00;8.40;99.90
60473;DHT22;46318;52.716;6.444;2022-09-27T06:05:29;8.40;99.90
60473;DHT22;46318;52.716;6.444;2022-09-27T06:08:01;8.40;99.90
60473;DHT22;46318;52.716;6.444;2022-09-27T06:10:29;8.40;99.90
60473;DHT22;46318;52.716;6.444;2022-09-27T06:13:04;8.30;99.90
60473;DHT22;46318;52.716;6.444;2022-09-27T06:15:33;8.30;99.90
60473;DHT22;46318;52.716;6.444;2022-09-27T06:18:18;8.30;99.90
60473;DHT22;46318;52.716;6.444;2022-09-27T06:20:44;8.30;99.90
60473;DHT22;46318;52.716;6.444;2022-09-27T06:23:21;8.30;99.90
60473;DHT22;46318;52.716;6.444;2022-09-27T06:25:48;8.40;99.90
60473;DHT22;46318;52.716;6.444;2022-09-27T06:28:15;8.40;99.90
60473;DHT22;46318;52.716;6.444;2022-09-27T06:30:46;8.40;99.90
60473;DHT22;46318;52.716;6.444;2022-09-27T06:33:15;8.40;99.90
60473;DHT22;46318;52.716;6.444;2022-09-27T06:35:42;8.40;99.90
60473;DHT22;46318;52.716;6.444;2022-09-27T06:38:12;8.40;99.90
60473;DHT22;46318;52.716;6.444;2022-09-27T06:40:41;8.40;99.90
60473;DHT22;46318;52.716;6.444;2022-09-27T06:43:11;8.50;99.90
60473;DHT22;46318;52.716;6.444;2022-09-27T06:45:38;8.50;99.90
60473;DHT22;46318;52.716;6.444;2022-09-27T06:48:06;8.50;99.90
60473;DHT22;46318;52.716;6.444;2022-09-27T06:50:35;8.60;99.90
60473;DHT22;46318;52.716;6.444;2022-09-27T06:53:06;8.60;99.90
60473;DHT22;46318;52.716;6.444;2022-09-27T06:55:32;8.60;99.90
60473;DHT22;46318;52.716;6.444;2022-09-27T06:58:00;8.60;99.90
60473;DHT22;46318;52.716;6.444;2022-09-27T07:00:48;8.70;99.90
60473;DHT22;46318;52.716;6.444;2022-09-27T07:03:14;8.70;99.90
60473;DHT22;46318;52.716;6.444;2022-09-27T07:05:41;8.70;99.90
60473;DHT22;46318;52.716;6.444;2022-09-27T07:08:09;8.70;99.90
60473;DHT22;46318;52.716;6.444;2022-09-27T07:10:38;8.70;99.90
60473;DHT22;46318;52.716;6.444;2022-09-27T07:13:06;8.70;99.90
60473;DHT22;46318;52.716;6.444;2022-09-27T07:15:34;8.70;99.90
60473;DHT22;46318;52.716;6.444;2022-09-27T07:18:04;8.70;99.90
60473;DHT22;46318;52.716;6.444;2022-09-27T07:20:32;8.80;99.90
60473;DHT22;46318;52.716;6.444;2022-09-27T07:23:00;8.80;99.90
60473;DHT22;46318;52.716;6.444;2022-09-27T07:25:26;8.90;99.90
60473;DHT22;46318;52.716;6.444;2022-09-27T07:27:52;8.90;99.90
60473;DHT22;46318;52.716;6.444;2022-09-27T07:30:18;9.00;99.90
60473;DHT22;46318;52.716;6.444;2022-09-27T07:32:44;9.10;99.90
60473;DHT22;46318;52.716;6.444;2022-09-27T07:35:11;9.20;99.90
60473;DHT22;46318;52.716;6.444;2022-09-27T07:37:39;9.30;99.90
60473;DHT22;46318;52.716;6.444;2022-09-27T07:40:07;9.30;99.90
60473;DHT22;46318;52.716;6.444;2022-09-27T07:42:35;9.40;99.90
60473;DHT22;46318;52.716;6.444;2022-09-27T07:45:06;9.50;99.90
60473;DHT22;46318;52.716;6.444;2022-09-27T07:47:33;9.60;99.90
60473;DHT22;46318;52.716;6.444;2022-09-27T07:49:59;9.70;99.90
60473;DHT22;46318;52.716;6.444;2022-09-27T07:52:24;9.80;99.90
60473;DHT22;46318;52.716;6.444;2022-09-27T07:54:53;9.90;99.90
60473;DHT22;46318;52.716;6.444;2022-09-27T07:57:21;9.90;99.90
60473;DHT22;46318;52.716;6.444;2022-09-27T07:59:47;10.00;99.90
60473;DHT22;46318;52.716;6.444;2022-09-27T08:02:17;10.10;99.90
60473;DHT22;46318;52.716;6.444;2022-09-27T08:04:42;10.20;99.90
60473;DHT22;46318;52.716;6.444;2022-09-27T08:07:09;10.30;99.90
60473;DHT22;46318;52.716;6.444;2022-09-27T08:09:35;10.30;99.90
60473;DHT22;46318;52.716;6.444;2022-09-27T08:12:01;10.40;99.90
60473;DHT22;46318;52.716;6.444;2022-09-27T08:14:29;10.50;99.90
60473;DHT22;46318;52.716;6.444;2022-09-27T08:16:55;10.50;99.90
60473;DHT22;46318;52.716;6.444;2022-09-27T08:19:21;10.60;99.90
60473;DHT22;46318;52.716;6.444;2022-09-27T08:21:47;10.70;99.90
60473;DHT22;46318;52.716;6.444;2022-09-27T08:24:13;10.80;99.90
60473;DHT22;46318;52.716;6.444;2022-09-27T08:26:39;10.90;99.90
60473;DHT22;46318;52.716;6.444;2022-09-27T08:29:05;11.00;99.90
60473;DHT22;46318;52.716;6.444;2022-09-27T08:31:30;11.00;99.90
60473;DHT22;46318;52.716;6.444;2022-09-27T08:33:56;11.10;99.90
60473;DHT22;46318;52.716;6.444;2022-09-27T08:36:26;11.20;99.90
60473;DHT22;46318;52.716;6.444;2022-09-27T08:38:53;11.30;99.90
60473;DHT22;46318;52.716;6.444;2022-09-27T08:42:15;11.30;99.90
60473;DHT22;46318;52.716;6.444;2022-09-27T08:47:36;11.30;99.90
60473;DHT22;46318;52.716;6.444;2022-09-27T08:55:50;11.20;99.90
60473;DHT22;46318;52.716;6.444;2022-09-27T08:58:26;11.20;99.90
60473;DHT22;46318;52.716;6.444;2022-09-27T09:00:56;11.30;99.90
60473;DHT22;46318;52.716;6.444;2022-09-27T09:03:27;11.30;99.90
60473;DHT22;46318;52.716;6.444;2022-09-27T09:12:11;11.50;99.90
60473;DHT22;46318;52.716;6.444;2022-09-27T09:24:33;11.60;99.90
60473;DHT22;46318;52.716;6.444;2022-09-27T09:30:51;11.40;99.90
60473;DHT22;46318;52.716;6.444;2022-09-27T09:36:03;11.30;99.90
60473;DHT22;46318;52.716;6.444;2022-09-27T09:38:44;11.20;99.90
60473;DHT22;46318;52.716;6.444;2022-09-27T09:41:25;11.20;99.90
60473;DHT22;46318;52.716;6.444;2022-09-27T09:44:14;11.20;99.90
60473;DHT22;46318;52.716;6.444;2022-09-27T09:46:53;11.20;99.90
60473;DHT22;46318;52.716;6.444;2022-09-27T09:49:38;11.20;99.90
60473;DHT22;46318;52.716;6.444;2022-09-27T09:52:17;11.20;99.90
60473;DHT22;46318;52.716;6.444;2022-09-27T09:55:02;11.20;99.90
60473;DHT22;46318;52.716;6.444;2022-09-27T09:57:40;11.20;99.90
60473;DHT22;46318;52.716;6.444;2022-09-27T10:00:16;11.20;99.90
60473;DHT22;46318;52.716;6.444;2022-09-27T10:02:45;11.20;99.90
60473;DHT22;46318;52.716;6.444;2022-09-27T10:05:19;11.20;99.90
60473;DHT22;46318;52.716;6.444;2022-09-27T10:07:48;11.30;99.90
60473;DHT22;46318;52.716;6.444;2022-09-27T10:10:18;11.30;99.90
60473;DHT22;46318;52.716;6.444;2022-09-27T10:12:45;11.30;99.90
60473;DHT22;46318;52.716;6.444;2022-09-27T10:15:21;11.30;99.90
60473;DHT22;46318;52.716;6.444;2022-09-27T10:17:50;11.30;99.90
60473;DHT22;46318;52.716;6.444;2022-09-27T10:20:44;11.40;99.90
60473;DHT22;46318;52.716;6.444;2022-09-27T10:23:23;11.50;99.90
60473;DHT22;46318;52.716;6.444;2022-09-27T10:26:01;11.60;99.90
60473;DHT22;46318;52.716;6.444;2022-09-27T10:28:40;11.80;99.90
60473;DHT22;46318;52.716;6.444;2022-09-27T10:31:12;11.90;99.90
60473;DHT22;46318;52.716;6.444;2022-09-27T10:33:58;11.90;99.90
60473;DHT22;46318;52.716;6.444;2022-09-27T10:36:29;12.00;99.90
60473;DHT22;46318;52.716;6.444;2022-09-27T10:38:57;12.00;99.90
60473;DHT22;46318;52.716;6.444;2022-09-27T10:41:36;12.00;99.90
60473;DHT22;46318;52.716;6.444;2022-09-27T10:46:43;12.10;99.90
60473;DHT22;46318;52.716;6.444;2022-09-27T10:49:24;12.20;99.90
60473;DHT22;46318;52.716;6.444;2022-09-27T10:51:58;12.30;99.90
60473;DHT22;46318;52.716;6.444;2022-09-27T10:54:28;12.30;99.90
60473;DHT22;46318;52.716;6.444;2022-09-27T10:59:40;12.20;99.90
60473;DHT22;46318;52.716;6.444;2022-09-27T11:02:39;12.00;99.90
60473;DHT22;46318;52.716;6.444;2022-09-27T11:05:26;11.90;99.90
60473;DHT22;46318;52.716;6.444;2022-09-27T11:08:19;11.80;99.90
60473;DHT22;46318;52.716;6.444;2022-09-27T11:13:39;11.80;99.90
60473;DHT22;46318;52.716;6.444;2022-09-27T11:16:21;11.70;99.90
60473;DHT22;46318;52.716;6.444;2022-09-27T11:31:42;11.50;99.90
60473;DHT22;46318;52.716;6.444;2022-09-27T11:38:10;11.50;99.90
60473;DHT22;46318;52.716;6.444;2022-09-27T11:41:25;11.50;99.90
60473;DHT22;46318;52.716;6.444;2022-09-27T11:47:36;11.60;99.90
60473;DHT22;46318;52.716;6.444;2022-09-27T11:50:25;11.60;99.90
60473;DHT22;46318;52.716;6.444;2022-09-27T11:56:10;11.70;99.90
60473;DHT22;46318;52.716;6.444;2022-09-27T12:10:22;12.00;99.90
60473;DHT22;46318;52.716;6.444;2022-09-27T12:12:53;12.00;99.90
60473;DHT22;46318;52.716;6.444;2022-09-27T12:15:27;12.00;99.90
60473;DHT22;46318;52.716;6.444;2022-09-27T12:20:49;12.10;99.90
60473;DHT22;46318;52.716;6.444;2022-09-27T12:23:20;12.10;99.90
60473;DHT22;46318;52.716;6.444;2022-09-27T12:25:53;12.20;99.90
60473;DHT22;46318;52.716;6.444;2022-09-27T12:28:25;12.30;99.90
60473;DHT22;46318;52.716;6.444;2022-09-27T12:31:04;12.30;99.90
60473;DHT22;46318;52.716;6.444;2022-09-27T12:33:56;12.40;99.90
60473;DHT22;46318;52.716;6.444;2022-09-27T12:36:27;12.50;99.90
60473;DHT22;46318;52.716;6.444;2022-09-27T12:39:04;12.50;99.90
60473;DHT22;46318;52.716;6.444;2022-09-27T12:41:52;12.60;99.90
60473;DHT22;46318;52.716;6.444;2022-09-27T12:44:31;12.60;99.90
60473;DHT22;46318;52.716;6.444;2022-09-27T12:47:20;12.70;99.90
60473;DHT22;46318;52.716;6.444;2022-09-27T12:53:00;12.90;99.90
60473;DHT22;46318;52.716;6.444;2022-09-27T13:04:35;13.10;99.90
60473;DHT22;46318;52.716;6.444;2022-09-27T13:07:14;13.10;99.90
60473;DHT22;46318;52.716;6.444;2022-09-27T13:12:48;12.90;99.90
60473;DHT22;46318;52.716;6.444;2022-09-27T13:15:33;12.80;99.90
60473;DHT22;46318;52.716;6.444;2022-09-27T13:18:01;12.80;99.90
60473;DHT22;46318;52.716;6.444;2022-09-27T13:20:37;12.90;99.90
60473;DHT22;46318;52.716;6.444;2022-09-27T13:25:59;13.00;99.90
60473;DHT22;46318;52.716;6.444;2022-09-27T13:30:59;13.10;99.90
60473;DHT22;46318;52.716;6.444;2022-09-27T13:36:27;13.10;99.90
60473;DHT22;46318;52.716;6.444;2022-09-27T13:39:19;13.10;99.90
60473;DHT22;46318;52.716;6.444;2022-09-27T13:47:31;13.00;99.90
60473;DHT22;46318;52.716;6.444;2022-09-27T13:50:25;12.90;99.90
60473;DHT22;46318;52.716;6.444;2022-09-27T13:53:00;12.80;99.90
60473;DHT22;46318;52.716;6.444;2022-09-27T13:55:45;12.80;99.90
60473;DHT22;46318;52.716;6.444;2022-09-27T14:00:47;12.80;99.90
60473;DHT22;46318;52.716;6.444;2022-09-27T14:03:20;12.70;99.90
60473;DHT22;46318;52.716;6.444;2022-09-27T14:06:03;12.70;99.90
60473;DHT22;46318;52.716;6.444;2022-09-27T14:08:45;12.70;99.90
60473;DHT22;46318;52.716;6.444;2022-09-27T14:11:34;12.70;99.90
60473;DHT22;46318;52.716;6.444;2022-09-27T14:14:03;12.70;99.90
60473;DHT22;46318;52.716;6.444;2022-09-27T14:16:33;12.60;99.90
60473;DHT22;46318;52.716;6.444;2022-09-27T14:19:01;12.60;99.90
60473;DHT22;46318;52.716;6.444;2022-09-27T14:21:38;12.60;99.90
60473;DHT22;46318;52.716;6.444;2022-09-27T14:27:29;12.60;99.90
60473;DHT22;46318;52.716;6.444;2022-09-27T14:30:09;12.60;99.90
60473;DHT22;46318;52.716;6.444;2022-09-27T14:32:50;12.60;99.90
60473;DHT22;46318;52.716;6.444;2022-09-27T14:35:23;12.60;99.90
60473;DHT22;46318;52.716;6.444;2022-09-27T14:38:35;12.60;99.90
60473;DHT22;46318;52.716;6.444;2022-09-27T14:41:01;12.60;99.90
60473;DHT22;46318;52.716;6.444;2022-09-27T14:43:33;12.60;99.90
60473;DHT22;46318;52.716;6.444;2022-09-27T14:46:02;12.60;99.90
60473;DHT22;46318;52.716;6.444;2022-09-27T14:48:37;12.60;99.90
60473;DHT22;46318;52.716;6.444;2022-09-27T14:51:19;12.60;99.90
60473;DHT22;46318;52.716;6.444;2022-09-27T14:53:54;12.60;99.90
60473;DHT22;46318;52.716;6.444;2022-09-27T14:56:34;12.60;99.90
60473;DHT22;46318;52.716;6.444;2022-09-27T14:59:33;12.50;99.90
60473;DHT22;46318;52.716;6.444;2022-09-27T15:02:03;12.50;99.90
60473;DHT22;46318;52.716;6.444;2022-09-27T15:04:36;12.40;99.90
60473;DHT22;46318;52.716;6.444;2022-09-27T15:07:02;12.50;99.90
60473;DHT22;46318;52.716;6.444;2022-09-27T15:09:29;12.40;99.90
60473;DHT22;46318;52.716;6.444;2022-09-27T15:11:57;12.50;99.90
60473;DHT22;46318;52.716;6.444;2022-09-27T15:14:27;12.40;99.90
60473;DHT22;46318;52.716;6.444;2022-09-27T15:16:57;12.40;99.90
60473;DHT22;46318;52.716;6.444;2022-09-27T15:19:29;12.40;99.90
60473;DHT22;46318;52.716;6.444;2022-09-27T15:21:58;12.40;99.90
60473;DHT22;46318;52.716;6.444;2022-09-27T15:25:16;12.40;99.90
60473;DHT22;46318;52.716;6.444;2022-09-27T15:27:53;12.40;99.90
60473;DHT22;46318;52.716;6.444;2022-09-27T15:30:28;12.40;99.90
60473;DHT22;46318;52.716;6.444;2022-09-27T15:32:59;12.40;99.90
60473;DHT22;46318;52.716;6.444;2022-09-27T15:35:29;12.40;99.90
60473;DHT22;46318;52.716;6.444;2022-09-27T15:41:17;12.30;99.90
60473;DHT22;46318;52.716;6.444;2022-09-27T15:43:49;12.30;99.90
60473;DHT22;46318;52.716;6.444;2022-09-27T15:51:56;12.30;99.90
60473;DHT22;46318;52.716;6.444;2022-09-27T15:54:29;12.30;99.90
60473;DHT22;46318;52.716;6.444;2022-09-27T15:57:01;12.30;99.90
60473;DHT22;46318;52.716;6.444;2022-09-27T15:59:32;12.30;99.90
60473;DHT22;46318;52.716;6.444;2022-09-27T16:02:09;12.20;99.90
60473;DHT22;46318;52.716;6.444;2022-09-27T16:04:40;12.20;99.90
60473;DHT22;46318;52.716;6.444;2022-09-27T16:07:06;12.20;99.90
60473;DHT22;46318;52.716;6.444;2022-09-27T16:09:33;12.20;99.90
60473;DHT22;46318;52.716;6.444;2022-09-27T16:11:59;12.20;99.90
60473;DHT22;46318;52.716;6.444;2022-09-27T16:14:25;12.10;99.90
60473;DHT22;46318;52.716;6.444;2022-09-27T16:16:53;12.20;99.90
60473;DHT22;46318;52.716;6.444;2022-09-27T16:19:21;12.10;99.90
60473;DHT22;46318;52.716;6.444;2022-09-27T16:21:46;12.10;99.90
60473;DHT22;46318;52.716;6.444;2022-09-27T16:24:13;12.10;99.90
60473;DHT22;46318;52.716;6.444;2022-09-27T16:26:39;12.00;99.90
60473;DHT22;46318;52.716;6.444;2022-09-27T16:29:10;12.00;99.90
60473;DHT22;46318;52.716;6.444;2022-09-27T16:31:38;12.10;99.90
60473;DHT22;46318;52.716;6.444;2022-09-27T16:34:08;12.00;99.90
60473;DHT22;46318;52.716;6.444;2022-09-27T16:36:34;12.00;99.90
60473;DHT22;46318;52.716;6.444;2022-09-27T16:39:00;12.00;99.90
60473;DHT22;46318;52.716;6.444;2022-09-27T16:41:29;11.90;99.90
60473;DHT22;46318;52.716;6.444;2022-09-27T16:44:04;11.90;99.90
60473;DHT22;46318;52.716;6.444;2022-09-27T16:46:31;11.90;99.90
60473;DHT22;46318;52.716;6.444;2022-09-27T16:48:59;11.90;99.90
60473;DHT22;46318;52.716;6.444;2022-09-27T16:51:24;11.80;99.90
60473;DHT22;46318;52.716;6.444;2022-09-27T16:54:09;11.80;99.90
60473;DHT22;46318;52.716;6.444;2022-09-27T16:56:35;11.80;99.90
60473;DHT22;46318;52.716;6.444;2022-09-27T16:59:02;11.80;99.90
60473;DHT22;46318;52.716;6.444;2022-09-27T17:01:30;11.70;99.90
60473;DHT22;46318;52.716;6.444;2022-09-27T17:03:56;11.70;99.90
60473;DHT22;46318;52.716;6.444;2022-09-27T17:06:23;11.70;99.90
60473;DHT22;46318;52.716;6.444;2022-09-27T17:08:49;11.70;99.90
60473;DHT22;46318;52.716;6.444;2022-09-27T17:11:19;11.70;99.90
60473;DHT22;46318;52.716;6.444;2022-09-27T17:13:46;11.60;99.90
60473;DHT22;46318;52.716;6.444;2022-09-27T17:16:14;11.60;99.90
60473;DHT22;46318;52.716;6.444;2022-09-27T17:18:41;11.50;99.90
60473;DHT22;46318;52.716;6.444;2022-09-27T17:21:07;11.50;99.90
60473;DHT22;46318;52.716;6.444;2022-09-27T17:23:34;11.50;99.90
60473;DHT22;46318;52.716;6.444;2022-09-27T17:26:04;11.40;99.90
60473;DHT22;46318;52.716;6.444;2022-09-27T17:28:31;11.40;99.90
60473;DHT22;46318;52.716;6.444;2022-09-27T17:31:05;11.40;99.90
60473;DHT22;46318;52.716;6.444;2022-09-27T17:33:39;11.30;99.90
60473;DHT22;46318;52.716;6.444;2022-09-27T17:36:09;11.30;99.90
60473;DHT22;46318;52.716;6.444;2022-09-27T17:38:37;11.30;99.90
60473;DHT22;46318;52.716;6.444;2022-09-27T17:41:10;11.20;99.90
60473;DHT22;46318;52.716;6.444;2022-09-27T17:43:38;11.20;99.90
60473;DHT22;46318;52.716;6.444;2022-09-27T17:46:08;11.20;99.90
60473;DHT22;46318;52.716;6.444;2022-09-27T17:48:35;11.10;99.90
60473;DHT22;46318;52.716;6.444;2022-09-27T17:51:39;11.10;99.90
60473;DHT22;46318;52.716;6.444;2022-09-27T17:54:07;11.10;99.90
60473;DHT22;46318;52.716;6.444;2022-09-27T17:56:41;11.00;99.90
60473;DHT22;46318;52.716;6.444;2022-09-27T17:59:08;11.00;99.90
60473;DHT22;46318;52.716;6.444;2022-09-27T18:01:35;11.00;99.90
60473;DHT22;46318;52.716;6.444;2022-09-27T18:04:04;10.90;99.90
60473;DHT22;46318;52.716;6.444;2022-09-27T18:06:40;10.90;99.90
60473;DHT22;46318;52.716;6.444;2022-09-27T18:09:10;10.90;99.90
60473;DHT22;46318;52.716;6.444;2022-09-27T18:11:40;10.90;99.90
60473;DHT22;46318;52.716;6.444;2022-09-27T18:14:06;10.90;99.90
60473;DHT22;46318;52.716;6.444;2022-09-27T18:16:38;10.80;99.90
60473;DHT22;46318;52.716;6.444;2022-09-27T18:19:09;10.80;99.90
60473;DHT22;46318;52.716;6.444;2022-09-27T18:21:37;10.80;99.90
60473;DHT22;46318;52.716;6.444;2022-09-27T18:24:04;10.80;99.90
60473;DHT22;46318;52.716;6.444;2022-09-27T18:26:32;10.70;99.90
60473;DHT22;46318;52.716;6.444;2022-09-27T18:29:04;10.70;99.90
60473;DHT22;46318;52.716;6.444;2022-09-27T18:31:30;10.70;99.90
60473;DHT22;46318;52.716;6.444;2022-09-27T18:33:56;10.70;99.90
60473;DHT22;46318;52.716;6.444;2022-09-27T18:36:24;10.60;99.90
60473;DHT22;46318;52.716;6.444;2022-09-27T18:38:56;10.60;99.90
60473;DHT22;46318;52.716;6.444;2022-09-27T18:41:24;10.60;99.90
60473;DHT22;46318;52.716;6.444;2022-09-27T18:43:56;10.60;99.90
60473;DHT22;46318;52.716;6.444;2022-09-27T18:46:34;10.60;99.90
60473;DHT22;46318;52.716;6.444;2022-09-27T18:49:04;10.60;99.90
60473;DHT22;46318;52.716;6.444;2022-09-27T18:51:32;10.50;99.90